sensor_id;sensor_type;location;lat;lon;timestamp;P1;durP1;ratioP1;P2;durP2;ratioP2
19810;SDS011;10065;49.632;8.346;2024-02-26T07:55:51;6.13;;;2.97;;
19810;SDS011;10065;49.632;8.346;2024-02-26T08:01:26;4.67;;;2.33;;
19810;SDS011;10065;49.632;8.346;2024-02-26T08:05:01;4.30;;;2.50;;
19810;SDS011;10065;49.632;8.346;2024-02-26T08:08:52;6.53;;;2.70;;
19810;SDS011;10065;49.632;8.346;2024-02-26T08:19:26;7.77;;;3.97;;
19810;SDS011;10065;49.632;8.346;2024-02-26T08:26:21;5.90;;;4.00;;
19810;SDS011;10065;49.632;8.346;2024-02-26T08:29:31;7.23;;;3.87;;
19810;SDS011;10065;49.632;8.346;2024-02-26T08:31:59;6.67;;;3.90;;
19810;SDS011;10065;49.632;8.346;2024-02-26T08:34:45;5.63;;;3.13;;
19810;SDS011;10065;49.632;8.346;2024-02-26T08:37:29;6.23;;;3.47;;
19810;SDS011;10065;49.632;8.346;2024-02-26T08:40:03;7.73;;;3.67;;
19810;SDS011;10065;49.632;8.346;2024-02-26T08:46:29;6.13;;;3.47;;
19810;SDS011;10065;49.632;8.346;2024-02-26T08:49:14;7.63;;;3.80;;
19810;SDS011;10065;49.632;8.346;2024-02-26T08:52:37;6.70;;;4.30;;
19810;SDS011;10065;49.632;8.346;2024-02-26T08:55:35;7.00;;;4.07;;
19810;SDS011;10065;49.632;8.346;2024-02-26T08:58:08;9.87;;;4.13;;
19810;SDS011;10065;49.632;8.346;2024-02-26T09:00:40;6.93;;;4.23;;
19810;SDS011;10065;49.632;8.346;2024-02-26T09:03:09;8.33;;;4.27;;
19810;SDS011;10065;49.632;8.346;2024-02-26T09:05:39;7.10;;;3.97;;
19810;SDS011;10065;49.632;8.346;2024-02-26T09:08:09;8.13;;;3.97;;
19810;SDS011;10065;49.632;8.346;2024-02-26T09:10:46;7.03;;;4.20;;
19810;SDS011;10065;49.632;8.346;2024-02-26T09:13:24;8.50;;;4.23;;
19810;SDS011;10065;49.632;8.346;2024-02-26T09:16:25;7.93;;;4.37;;
19810;SDS011;10065;49.632;8.346;2024-02-26T09:19:10;8.27;;;4.13;;
19810;SDS011;10065;49.632;8.346;2024-02-26T09:21:55;7.80;;;4.07;;
19810;SDS011;10065;49.632;8.346;2024-02-26T09:24:32;10.63;;;4.40;;
19810;SDS011;10065;49.632;8.346;2024-02-26T09:27:04;6.50;;;3.90;;
19810;SDS011;10065;49.632;8.346;2024-02-26T09:29:35;6.57;;;4.20;;
19810;SDS011;10065;49.632;8.346;2024-02-26T09:32:24;11.80;;;4.53;;
19810;SDS011;10065;49.632;8.346;2024-02-26T09:35:00;6.73;;;3.83;;
19810;SDS011;10065;49.632;8.346;2024-02-26T09:37:30;6.30;;;3.90;;
19810;SDS011;10065;49.632;8.346;2024-02-26T09:40:03;8.37;;;4.70;;
19810;SDS011;10065;49.632;8.346;2024-02-26T09:42:40;8.53;;;4.07;;
19810;SDS011;10065;49.632;8.346;2024-02-26T09:45:17;7.57;;;3.90;;
19810;SDS011;10065;49.632;8.346;2024-02-26T09:48:12;5.53;;;3.53;;
19810;SDS011;10065;49.632;8.346;2024-02-26T09:51:02;7.20;;;4.33;;
19810;SDS011;10065;49.632;8.346;2024-02-26T09:53:33;7.03;;;3.73;;
19810;SDS011;10065;49.632;8.346;2024-02-26T09:56:06;7.90;;;3.87;;
19810;SDS011;10065;49.632;8.346;2024-02-26T09:58:41;7.60;;;3.93;;
19810;SDS011;10065;49.632;8.346;2024-02-26T10:01:13;5.53;;;3.37;;
19810;SDS011;10065;49.632;8.346;2024-02-26T10:03:51;8.47;;;3.00;;
19810;SDS011;10065;49.632;8.346;2024-02-26T10:06:26;5.03;;;2.40;;
19810;SDS011;10065;49.632;8.346;2024-02-26T10:08:56;3.93;;;2.07;;
19810;SDS011;10065;49.632;8.346;2024-02-26T10:12:18;4.10;;;2.33;;
19810;SDS011;10065;49.632;8.346;2024-02-26T10:15:00;4.13;;;2.10;;
19810;SDS011;10065;49.632;8.346;2024-02-26T10:17:38;5.00;;;2.50;;
19810;SDS011;10065;49.632;8.346;2024-02-26T10:20:16;4.63;;;2.20;;
19810;SDS011;10065;49.632;8.346;2024-02-26T10:22:49;4.77;;;2.40;;
19810;SDS011;10065;49.632;8.346;2024-02-26T10:28:49;3.53;;;2.00;;
19810;SDS011;10065;49.632;8.346;2024-02-26T10:31:21;4.23;;;2.43;;
19810;SDS011;10065;49.632;8.346;2024-02-26T10:34:07;6.00;;;3.00;;
19810;SDS011;10065;49.632;8.346;2024-02-26T10:36:45;5.23;;;2.60;;
19810;SDS011;10065;49.632;8.346;2024-02-26T10:39:21;7.90;;;2.97;;
19810;SDS011;10065;49.632;8.346;2024-02-26T10:41:50;6.93;;;3.97;;
19810;SDS011;10065;49.632;8.346;2024-02-26T10:44:22;8.40;;;4.23;;
19810;SDS011;10065;49.632;8.346;2024-02-26T10:47:03;7.77;;;3.83;;
19810;SDS011;10065;49.632;8.346;2024-02-26T10:49:35;6.53;;;3.73;;
19810;SDS011;10065;49.632;8.346;2024-02-26T10:52:05;6.90;;;3.30;;
19810;SDS011;10065;49.632;8.346;2024-02-26T10:54:34;4.07;;;2.83;;
19810;SDS011;10065;49.632;8.346;2024-02-26T10:57:08;8.53;;;3.93;;
19810;SDS011;10065;49.632;8.346;2024-02-26T10:59:37;5.97;;;3.37;;
19810;SDS011;10065;49.632;8.346;2024-02-26T11:02:09;5.80;;;3.23;;
19810;SDS011;10065;49.632;8.346;2024-02-26T11:04:40;5.23;;;3.37;;
19810;SDS011;10065;49.632;8.346;2024-02-26T11:07:13;5.23;;;3.40;;
19810;SDS011;10065;49.632;8.346;2024-02-26T11:09:44;5.70;;;3.47;;
19810;SDS011;10065;49.632;8.346;2024-02-26T11:12:19;5.20;;;2.87;;
19810;SDS011;10065;49.632;8.346;2024-02-26T11:14:57;3.87;;;2.73;;
19810;SDS011;10065;49.632;8.346;2024-02-26T11:17:31;5.70;;;2.90;;
19810;SDS011;10065;49.632;8.346;2024-02-26T11:20:01;5.33;;;3.03;;
19810;SDS011;10065;49.632;8.346;2024-02-26T11:22:34;5.63;;;3.63;;
19810;SDS011;10065;49.632;8.346;2024-02-26T11:25:03;7.07;;;4.37;;
19810;SDS011;10065;49.632;8.346;2024-02-26T11:27:36;6.40;;;4.07;;
19810;SDS011;10065;49.632;8.346;2024-02-26T11:30:09;6.77;;;3.63;;
19810;SDS011;10065;49.632;8.346;2024-02-26T11:32:46;7.10;;;4.00;;
19810;SDS011;10065;49.632;8.346;2024-02-26T11:35:36;7.30;;;4.17;;
19810;SDS011;10065;49.632;8.346;2024-02-26T11:38:26;6.93;;;4.00;;
19810;SDS011;10065;49.632;8.346;2024-02-26T11:41:09;5.57;;;4.10;;
19810;SDS011;10065;49.632;8.346;2024-02-26T11:43:57;8.00;;;3.83;;
19810;SDS011;10065;49.632;8.346;2024-02-26T11:46:38;10.80;;;4.27;;
19810;SDS011;10065;49.632;8.346;2024-02-26T11:49:29;9.10;;;4.23;;
19810;SDS011;10065;49.632;8.346;2024-02-26T11:52:09;6.03;;;3.67;;
19810;SDS011;10065;49.632;8.346;2024-02-26T11:58:20;5.60;;;3.50;;
19810;SDS011;10065;49.632;8.346;2024-02-26T12:01:03;7.53;;;4.27;;
19810;SDS011;10065;49.632;8.346;2024-02-26T12:04:00;9.70;;;4.47;;
19810;SDS011;10065;49.632;8.346;2024-02-26T12:06:29;8.27;;;4.50;;
19810;SDS011;10065;49.632;8.346;2024-02-26T12:08:58;6.93;;;4.43;;
19810;SDS011;10065;49.632;8.346;2024-02-26T12:11:27;7.43;;;4.40;;
19810;SDS011;10065;49.632;8.346;2024-02-26T12:13:57;9.77;;;4.40;;
19810;SDS011;10065;49.632;8.346;2024-02-26T12:16:37;10.10;;;4.20;;
19810;SDS011;10065;49.632;8.346;2024-02-26T12:19:06;11.57;;;4.33;;
19810;SDS011;10065;49.632;8.346;2024-02-26T12:22:23;11.73;;;4.67;;
19810;SDS011;10065;49.632;8.346;2024-02-26T12:24:58;9.23;;;4.37;;
19810;SDS011;10065;49.632;8.346;2024-02-26T12:27:27;6.70;;;3.50;;
19810;SDS011;10065;49.632;8.346;2024-02-26T12:29:57;10.10;;;4.20;;
19810;SDS011;10065;49.632;8.346;2024-02-26T12:32:25;10.17;;;4.30;;
19810;SDS011;10065;49.632;8.346;2024-02-26T12:34:53;10.97;;;4.60;;
19810;SDS011;10065;49.632;8.346;2024-02-26T12:37:22;7.93;;;4.23;;
19810;SDS011;10065;49.632;8.346;2024-02-26T12:39:50;6.80;;;4.10;;
19810;SDS011;10065;49.632;8.346;2024-02-26T12:42:19;9.43;;;3.70;;
19810;SDS011;10065;49.632;8.346;2024-02-26T12:44:49;7.97;;;3.87;;
19810;SDS011;10065;49.632;8.346;2024-02-26T12:47:19;6.83;;;4.07;;
19810;SDS011;10065;49.632;8.346;2024-02-26T12:49:51;12.07;;;4.10;;
19810;SDS011;10065;49.632;8.346;2024-02-26T12:52:21;7.93;;;3.67;;
19810;SDS011;10065;49.632;8.346;2024-02-26T12:54:51;9.40;;;3.47;;
19810;SDS011;10065;49.632;8.346;2024-02-26T12:57:19;8.57;;;3.47;;
19810;SDS011;10065;49.632;8.346;2024-02-26T12:59:47;6.17;;;3.60;;
19810;SDS011;10065;49.632;8.346;2024-02-26T13:02:15;6.13;;;3.20;;
19810;SDS011;10065;49.632;8.346;2024-02-26T13:04:45;8.23;;;3.57;;
19810;SDS011;10065;49.632;8.346;2024-02-26T13:07:14;9.77;;;4.00;;
19810;SDS011;10065;49.632;8.346;2024-02-26T13:09:42;6.53;;;3.13;;
19810;SDS011;10065;49.632;8.346;2024-02-26T13:12:10;6.77;;;3.10;;
19810;SDS011;10065;49.632;8.346;2024-02-26T13:14:40;11.60;;;3.50;;
19810;SDS011;10065;49.632;8.346;2024-02-26T13:17:08;6.17;;;3.27;;
19810;SDS011;10065;49.632;8.346;2024-02-26T13:19:37;6.93;;;3.40;;
19810;SDS011;10065;49.632;8.346;2024-02-26T13:22:17;7.67;;;3.70;;
19810;SDS011;10065;49.632;8.346;2024-02-26T13:24:55;6.53;;;3.60;;
19810;SDS011;10065;49.632;8.346;2024-02-26T13:27:25;8.90;;;3.13;;
19810;SDS011;10065;49.632;8.346;2024-02-26T13:30:04;8.17;;;3.53;;
19810;SDS011;10065;49.632;8.346;2024-02-26T13:32:36;7.43;;;3.57;;
19810;SDS011;10065;49.632;8.346;2024-02-26T13:35:06;5.37;;;3.40;;
19810;SDS011;10065;49.632;8.346;2024-02-26T13:37:39;8.20;;;4.20;;
19810;SDS011;10065;49.632;8.346;2024-02-26T13:40:08;10.97;;;4.10;;
19810;SDS011;10065;49.632;8.346;2024-02-26T13:42:38;12.67;;;4.73;;
19810;SDS011;10065;49.632;8.346;2024-02-26T13:45:07;8.43;;;4.10;;
19810;SDS011;10065;49.632;8.346;2024-02-26T13:47:46;6.50;;;3.97;;
19810;SDS011;10065;49.632;8.346;2024-02-26T13:50:15;6.93;;;3.67;;
19810;SDS011;10065;49.632;8.346;2024-02-26T13:52:51;6.07;;;3.27;;
19810;SDS011;10065;49.632;8.346;2024-02-26T13:55:22;8.47;;;2.87;;
19810;SDS011;10065;49.632;8.346;2024-02-26T13:57:52;9.83;;;4.40;;
19810;SDS011;10065;49.632;8.346;2024-02-26T14:00:24;9.00;;;4.00;;
19810;SDS011;10065;49.632;8.346;2024-02-26T14:03:01;6.40;;;3.33;;
19810;SDS011;10065;49.632;8.346;2024-02-26T14:05:30;7.27;;;3.30;;
19810;SDS011;10065;49.632;8.346;2024-02-26T14:08:02;8.43;;;3.30;;
19810;SDS011;10065;49.632;8.346;2024-02-26T14:10:31;8.10;;;3.70;;
19810;SDS011;10065;49.632;8.346;2024-02-26T14:12:59;8.80;;;3.50;;
19810;SDS011;10065;49.632;8.346;2024-02-26T14:15:27;10.00;;;3.63;;
19810;SDS011;10065;49.632;8.346;2024-02-26T14:17:56;8.73;;;3.53;;
19810;SDS011;10065;49.632;8.346;2024-02-26T14:20:25;5.60;;;3.00;;
19810;SDS011;10065;49.632;8.346;2024-02-26T14:22:53;9.10;;;3.20;;
19810;SDS011;10065;49.632;8.346;2024-02-26T14:25:28;7.70;;;3.37;;
19810;SDS011;10065;49.632;8.346;2024-02-26T14:27:57;9.97;;;3.57;;
19810;SDS011;10065;49.632;8.346;2024-02-26T14:33:10;7.47;;;3.73;;
19810;SDS011;10065;49.632;8.346;2024-02-26T14:35:39;13.07;;;4.20;;
19810;SDS011;10065;49.632;8.346;2024-02-26T14:38:07;12.53;;;3.87;;
19810;SDS011;10065;49.632;8.346;2024-02-26T14:40:37;9.37;;;4.57;;
19810;SDS011;10065;49.632;8.346;2024-02-26T14:43:05;7.33;;;4.03;;
19810;SDS011;10065;49.632;8.346;2024-02-26T14:45:36;11.37;;;4.13;;
19810;SDS011;10065;49.632;8.346;2024-02-26T14:48:05;8.67;;;3.80;;
19810;SDS011;10065;49.632;8.346;2024-02-26T14:50:35;7.27;;;3.90;;
19810;SDS011;10065;49.632;8.346;2024-02-26T14:53:09;9.67;;;4.17;;
19810;SDS011;10065;49.632;8.346;2024-02-26T14:55:45;7.93;;;3.77;;
19810;SDS011;10065;49.632;8.346;2024-02-26T14:58:13;12.77;;;4.40;;
19810;SDS011;10065;49.632;8.346;2024-02-26T15:00:41;11.47;;;3.87;;
19810;SDS011;10065;49.632;8.346;2024-02-26T15:03:10;8.67;;;3.97;;
19810;SDS011;10065;49.632;8.346;2024-02-26T15:05:38;7.73;;;3.60;;
19810;SDS011;10065;49.632;8.346;2024-02-26T15:08:06;7.97;;;3.73;;
19810;SDS011;10065;49.632;8.346;2024-02-26T15:10:43;9.87;;;3.57;;
19810;SDS011;10065;49.632;8.346;2024-02-26T15:13:15;8.53;;;4.03;;
19810;SDS011;10065;49.632;8.346;2024-02-26T15:15:44;6.97;;;3.40;;
19810;SDS011;10065;49.632;8.346;2024-02-26T15:18:15;9.47;;;3.83;;
19810;SDS011;10065;49.632;8.346;2024-02-26T15:20:43;7.00;;;3.67;;
19810;SDS011;10065;49.632;8.346;2024-02-26T15:23:14;5.93;;;3.50;;
19810;SDS011;10065;49.632;8.346;2024-02-26T15:25:48;8.40;;;3.73;;
19810;SDS011;10065;49.632;8.346;2024-02-26T15:28:16;8.50;;;4.17;;
19810;SDS011;10065;49.632;8.346;2024-02-26T15:30:45;7.53;;;3.57;;
19810;SDS011;10065;49.632;8.346;2024-02-26T15:33:14;7.50;;;4.50;;
19810;SDS011;10065;49.632;8.346;2024-02-26T15:35:42;7.47;;;3.67;;
19810;SDS011;10065;49.632;8.346;2024-02-26T15:38:11;13.40;;;5.13;;
19810;SDS011;10065;49.632;8.346;2024-02-26T15:40:41;9.70;;;4.43;;
19810;SDS011;10065;49.632;8.346;2024-02-26T15:43:12;10.70;;;3.97;;
19810;SDS011;10065;49.632;8.346;2024-02-26T15:45:44;10.00;;;4.40;;
19810;SDS011;10065;49.632;8.346;2024-02-26T15:48:30;7.67;;;3.90;;
19810;SDS011;10065;49.632;8.346;2024-02-26T15:51:28;6.13;;;3.50;;
19810;SDS011;10065;49.632;8.346;2024-02-26T15:54:12;5.63;;;3.57;;
19810;SDS011;10065;49.632;8.346;2024-02-26T15:56:55;7.13;;;4.30;;
19810;SDS011;10065;49.632;8.346;2024-02-26T15:59:57;10.40;;;3.90;;
19810;SDS011;10065;49.632;8.346;2024-02-26T16:02:29;6.07;;;3.73;;
19810;SDS011;10065;49.632;8.346;2024-02-26T16:05:30;5.93;;;3.57;;
19810;SDS011;10065;49.632;8.346;2024-02-26T16:08:41;7.30;;;4.17;;
19810;SDS011;10065;49.632;8.346;2024-02-26T16:11:25;9.40;;;4.93;;
19810;SDS011;10065;49.632;8.346;2024-02-26T16:14:16;9.67;;;4.17;;
19810;SDS011;10065;49.632;8.346;2024-02-26T16:17:26;10.13;;;4.60;;
19810;SDS011;10065;49.632;8.346;2024-02-26T16:20:18;9.60;;;4.17;;
19810;SDS011;10065;49.632;8.346;2024-02-26T16:22:54;8.07;;;4.40;;
19810;SDS011;10065;49.632;8.346;2024-02-26T16:25:48;8.33;;;4.47;;
19810;SDS011;10065;49.632;8.346;2024-02-26T16:28:31;8.23;;;4.50;;
19810;SDS011;10065;49.632;8.346;2024-02-26T16:31:20;13.03;;;3.90;;
19810;SDS011;10065;49.632;8.346;2024-02-26T16:44:03;11.10;;;4.67;;
19810;SDS011;10065;49.632;8.346;2024-02-26T16:47:03;9.73;;;5.07;;
19810;SDS011;10065;49.632;8.346;2024-02-26T16:49:33;12.87;;;4.73;;
19810;SDS011;10065;49.632;8.346;2024-02-26T16:52:02;8.93;;;4.57;;
19810;SDS011;10065;49.632;8.346;2024-02-26T16:54:30;10.40;;;5.00;;
19810;SDS011;10065;49.632;8.346;2024-02-26T16:57:00;12.33;;;4.87;;
19810;SDS011;10065;49.632;8.346;2024-02-26T16:59:29;11.23;;;4.27;;
19810;SDS011;10065;49.632;8.346;2024-02-26T17:01:59;7.77;;;4.60;;
19810;SDS011;10065;49.632;8.346;2024-02-26T17:04:27;10.27;;;4.17;;
19810;SDS011;10065;49.632;8.346;2024-02-26T17:06:55;9.40;;;4.60;;
19810;SDS011;10065;49.632;8.346;2024-02-26T17:09:25;10.50;;;4.70;;
19810;SDS011;10065;49.632;8.346;2024-02-26T17:19:43;8.17;;;4.47;;
19810;SDS011;10065;49.632;8.346;2024-02-26T17:22:41;7.57;;;4.87;;
19810;SDS011;10065;49.632;8.346;2024-02-26T17:25:42;10.27;;;5.13;;
19810;SDS011;10065;49.632;8.346;2024-02-26T17:28:40;11.93;;;4.80;;
19810;SDS011;10065;49.632;8.346;2024-02-26T17:31:44;13.03;;;4.73;;
19810;SDS011;10065;49.632;8.346;2024-02-26T17:41:27;10.20;;;5.07;;
19810;SDS011;10065;49.632;8.346;2024-02-26T17:44:33;9.97;;;4.93;;
19810;SDS011;10065;49.632;8.346;2024-02-26T17:47:34;8.53;;;4.80;;
19810;SDS011;10065;49.632;8.346;2024-02-26T17:50:25;11.83;;;5.17;;
19810;SDS011;10065;49.632;8.346;2024-02-26T17:52:59;12.27;;;5.63;;
19810;SDS011;10065;49.632;8.346;2024-02-26T18:05:33;8.37;;;4.47;;
19810;SDS011;10065;49.632;8.346;2024-02-26T18:08:19;8.80;;;5.30;;
19810;SDS011;10065;49.632;8.346;2024-02-26T18:11:17;11.70;;;5.77;;
19810;SDS011;10065;49.632;8.346;2024-02-26T18:14:01;9.37;;;5.00;;
19810;SDS011;10065;49.632;8.346;2024-02-26T18:16:35;9.77;;;5.30;;
19810;SDS011;10065;49.632;8.346;2024-02-26T18:19:33;9.27;;;5.33;;
19810;SDS011;10065;49.632;8.346;2024-02-26T18:25:24;11.53;;;4.90;;
19810;SDS011;10065;49.632;8.346;2024-02-26T18:27:55;13.40;;;5.20;;
19810;SDS011;10065;49.632;8.346;2024-02-26T18:30:28;11.33;;;5.50;;
19810;SDS011;10065;49.632;8.346;2024-02-26T18:33:25;13.90;;;5.37;;
19810;SDS011;10065;49.632;8.346;2024-02-26T18:36:06;11.17;;;5.33;;
19810;SDS011;10065;49.632;8.346;2024-02-26T18:45:14;11.60;;;5.33;;
19810;SDS011;10065;49.632;8.346;2024-02-26T18:48:13;8.93;;;4.90;;
19810;SDS011;10065;49.632;8.346;2024-02-26T18:51:03;9.40;;;5.60;;
19810;SDS011;10065;49.632;8.346;2024-02-26T18:53:33;9.23;;;5.27;;
19810;SDS011;10065;49.632;8.346;2024-02-26T18:56:03;7.83;;;4.93;;
19810;SDS011;10065;49.632;8.346;2024-02-26T18:58:34;10.50;;;4.73;;
19810;SDS011;10065;49.632;8.346;2024-02-26T19:01:05;10.00;;;4.83;;
19810;SDS011;10065;49.632;8.346;2024-02-26T19:03:44;8.67;;;4.67;;
19810;SDS011;10065;49.632;8.346;2024-02-26T19:06:14;7.27;;;4.57;;
19810;SDS011;10065;49.632;8.346;2024-02-26T19:08:56;8.53;;;4.43;;
19810;SDS011;10065;49.632;8.346;2024-02-26T19:11:59;9.80;;;5.07;;
19810;SDS011;10065;49.632;8.346;2024-02-26T19:18:19;6.53;;;4.17;;
19810;SDS011;10065;49.632;8.346;2024-02-26T19:20:49;9.13;;;3.87;;
19810;SDS011;10065;49.632;8.346;2024-02-26T19:23:28;9.30;;;4.70;;
19810;SDS011;10065;49.632;8.346;2024-02-26T19:26:26;8.07;;;4.40;;
19810;SDS011;10065;49.632;8.346;2024-02-26T19:29:08;10.33;;;4.67;;
19810;SDS011;10065;49.632;8.346;2024-02-26T19:32:01;8.27;;;4.73;;
19810;SDS011;10065;49.632;8.346;2024-02-26T19:34:31;8.60;;;4.90;;
19810;SDS011;10065;49.632;8.346;2024-02-26T19:37:27;10.33;;;4.50;;
19810;SDS011;10065;49.632;8.346;2024-02-26T19:40:03;10.63;;;4.87;;
19810;SDS011;10065;49.632;8.346;2024-02-26T19:42:40;7.47;;;4.83;;
19810;SDS011;10065;49.632;8.346;2024-02-26T19:45:13;11.13;;;4.83;;
19810;SDS011;10065;49.632;8.346;2024-02-26T19:47:59;8.73;;;4.20;;
19810;SDS011;10065;49.632;8.346;2024-02-26T19:50:27;7.27;;;4.23;;
19810;SDS011;10065;49.632;8.346;2024-02-26T19:52:55;9.50;;;4.77;;
19810;SDS011;10065;49.632;8.346;2024-02-26T19:55:24;10.20;;;5.00;;
19810;SDS011;10065;49.632;8.346;2024-02-26T19:57:54;12.47;;;5.47;;
19810;SDS011;10065;49.632;8.346;2024-02-26T20:00:25;8.33;;;4.80;;
19810;SDS011;10065;49.632;8.346;2024-02-26T20:16:18;11.27;;;5.03;;
19810;SDS011;10065;49.632;8.346;2024-02-26T20:18:48;10.50;;;5.43;;
19810;SDS011;10065;49.632;8.346;2024-02-26T20:21:45;9.60;;;5.43;;
19810;SDS011;10065;49.632;8.346;2024-02-26T20:24:44;10.70;;;5.50;;
19810;SDS011;10065;49.632;8.346;2024-02-26T20:27:44;13.13;;;5.07;;
19810;SDS011;10065;49.632;8.346;2024-02-26T20:33:48;8.07;;;4.43;;
19810;SDS011;10065;49.632;8.346;2024-02-26T20:36:44;10.00;;;5.50;;
19810;SDS011;10065;49.632;8.346;2024-02-26T20:39:29;8.73;;;4.93;;
19810;SDS011;10065;49.632;8.346;2024-02-26T20:41:57;6.93;;;4.50;;
19810;SDS011;10065;49.632;8.346;2024-02-26T20:44:25;7.67;;;4.20;;
